Time;durP1;ratioP1;P1;durP2;ratioP2;P2;SDS_P1;SDS_P2;PMS_P1;PMS_P2;Temp;Humidity;BMP_temperature;BMP_pressure;BME280_temperature;BME280_humidity;BME280_pressure;Samples;Min_cycle;Max_cycle;Signal;HPM_P1;HPM_P2
2024/02/05 00:00:36;;;;;;;9.65;5.13;;;;;;;1.73;100.00;97608.38;5030833;28;20050;-67
2024/02/05 00:03:02;;;;;;;8.05;4.63;;;;;;;1.65;100.00;97609.78;5015610;28;20108;-66
2024/02/05 00:05:27;;;;;;;11.55;4.80;;;;;;;1.51;100.00;97603.47;5015279;28;20049;-66
2024/02/05 00:07:52;;;;;;;8.43;5.03;;;;;;;1.37;100.00;97600.66;5014060;28;20045;-69
2024/02/05 00:10:18;;;;;;;10.07;5.50;;;;;;;1.34;100.00;97617.41;5011286;28;20053;-66
2024/02/05 00:12:44;;;;;;;10.43;5.05;;;;;;;1.27;100.00;97608.84;5019092;28;20049;-67
2024/02/05 00:15:09;;;;;;;9.57;5.75;;;;;;;1.10;100.00;97603.84;5008186;28;20037;-67
2024/02/05 00:17:35;;;;;;;9.07;4.88;;;;;;;1.02;100.00;97613.34;5014691;28;20056;-66
2024/02/05 00:20:01;;;;;;;8.68;5.32;;;;;;;1.07;100.00;97607.13;4995635;28;20634;-68
2024/02/05 00:22:26;;;;;;;10.13;5.43;;;;;;;1.18;100.00;97611.34;5012305;28;20048;-66
2024/02/05 00:24:52;;;;;;;12.52;5.43;;;;;;;1.27;100.00;97608.84;4998487;28;20049;-68
2024/02/05 00:27:17;;;;;;;10.85;6.55;;;;;;;1.27;100.00;97612.31;5009852;28;20928;-66
2024/02/05 00:29:42;;;;;;;13.10;6.65;;;;;;;1.30;100.00;97605.56;5017757;28;20073;-68
2024/02/05 00:32:08;;;;;;;12.48;6.00;;;;;;;1.37;100.00;97611.44;5010838;28;20436;-68
2024/02/05 00:34:33;;;;;;;9.98;5.15;;;;;;;1.37;100.00;97614.16;5018138;28;20160;-68
2024/02/05 00:36:59;;;;;;;9.70;5.22;;;;;;;1.32;100.00;97616.88;5016797;28;20038;-68
2024/02/05 00:39:24;;;;;;;8.90;5.05;;;;;;;1.30;100.00;97622.56;5009750;28;20076;-69
2024/02/05 00:41:50;;;;;;;18.90;5.10;;;;;;;1.24;100.00;97618.31;5017727;28;20152;-68
2024/02/05 00:44:15;;;;;;;12.68;4.63;;;;;;;1.21;100.00;97610.78;5010753;28;20041;-68
2024/02/05 00:46:40;;;;;;;7.75;4.88;;;;;;;1.18;100.00;97613.22;5017011;28;20059;-68
2024/02/05 00:49:06;;;;;;;10.15;5.20;;;;;;;1.07;100.00;97615.22;5008485;28;20072;-66
2024/02/05 00:51:32;;;;;;;11.55;6.03;;;;;;;1.00;100.00;97614.72;5017343;28;20053;-68
2024/02/05 00:53:58;;;;;;;8.70;5.55;;;;;;;1.05;100.00;97614.69;4996461;28;20503;-68
2024/02/05 00:56:24;;;;;;;12.43;6.50;;;;;;;1.02;100.00;97617.94;5010507;28;20865;-68
2024/02/05 00:58:49;;;;;;;12.07;7.13;;;;;;;1.09;100.00;97616.53;5027372;28;20129;-69
2024/02/05 01:01:16;;;;;;;13.45;7.50;;;;;;;1.08;100.00;97622.19;5022517;28;20045;-68
2024/02/05 01:03:42;;;;;;;12.63;8.50;;;;;;;1.18;100.00;97613.22;5023436;28;20049;-69
2024/02/05 01:06:08;;;;;;;12.88;6.55;;;;;;;1.49;100.00;97619.94;5018411;28;20052;-68
2024/02/05 01:08:34;;;;;;;13.80;7.05;;;;;;;1.50;100.00;97620.78;4983437;28;20114;-68
2024/02/05 01:11:00;;;;;;;12.82;7.05;;;;;;;1.45;100.00;97620.81;5012550;28;20381;-68
2024/02/05 01:13:26;;;;;;;14.98;8.18;;;;;;;1.15;100.00;97619.97;5008329;28;20120;-68
2024/02/05 01:15:51;;;;;;;12.80;7.82;;;;;;;0.86;100.00;97628.03;5015642;28;20103;-68
2024/02/05 01:18:17;;;;;;;14.23;8.57;;;;;;;0.75;100.00;97624.59;5010987;28;20037;-67
2024/02/05 01:20:43;;;;;;;15.57;8.57;;;;;;;0.71;100.00;97627.06;5018099;28;20141;-68
2024/02/05 01:23:09;;;;;;;13.10;8.00;;;;;;;0.81;100.00;97622.66;5010295;28;20052;-68
2024/02/05 01:25:35;;;;;;;18.30;8.38;;;;;;;1.02;100.00;97624.13;4998391;28;20045;-67
2024/02/05 01:28:03;;;;;;;16.40;7.90;;;;;;;1.07;100.00;97623.31;5016559;28;20065;-68
2024/02/05 01:30:29;;;;;;;15.20;7.90;;;;;;;1.11;100.00;97629.75;4997512;28;20110;-67
2024/02/05 01:32:54;;;;;;;14.27;7.93;;;;;;;1.21;100.00;97616.16;5017821;28;20132;-67
2024/02/05 01:35:20;;;;;;;21.25;10.13;;;;;;;1.12;100.00;97625.97;5007322;28;20045;-67
2024/02/05 01:37:45;;;;;;;13.98;8.88;;;;;;;1.21;100.00;97612.69;4995640;28;20045;-67
2024/02/05 01:40:11;;;;;;;17.50;9.38;;;;;;;1.08;100.00;97611.41;4994049;28;20045;-66
2024/02/05 01:42:41;;;;;;;16.88;9.55;;;;;;;1.05;100.00;97607.38;5009012;28;20122;-66
2024/02/05 01:45:06;;;;;;;;;;;;;;;1.12;100.00;97605.19;5009486;28;20049;-67
2024/02/05 01:47:37;;;;;;;16.75;8.70;;;;;;;0.89;100.00;97609.41;4996828;28;20263;-66
2024/02/05 01:50:09;;;;;;;13.25;8.35;;;;;;;0.53;100.00;97611.53;5011890;28;20052;-66
2024/02/05 01:52:39;;;;;;;15.38;9.63;;;;;;;0.45;100.00;97614.81;5017616;28;20049;-67
2024/02/05 01:55:06;;;;;;;15.68;9.55;;;;;;;0.56;100.00;97611.00;5009238;28;20170;-68
2024/02/05 01:57:33;;;;;;;19.13;10.73;;;;;;;0.92;100.00;97611.53;5014955;28;20111;-67
2024/02/05 02:00:00;;;;;;;18.00;10.02;;;;;;;0.87;100.00;97616.97;5035563;28;20076;-68
2024/02/05 02:02:27;;;;;;;18.00;9.70;;;;;;;0.87;100.00;97618.88;5017785;28;21147;-66
2024/02/05 02:04:55;;;;;;;16.95;9.50;;;;;;;0.92;100.00;97610.75;5019923;28;20037;-67
2024/02/05 02:07:20;;;;;;;25.95;11.00;;;;;;;0.92;100.00;97610.75;5015148;28;20152;-67
2024/02/05 02:09:45;;;;;;;19.17;10.00;;;;;;;0.93;100.00;97604.25;5000949;28;20132;-68
2024/02/05 02:12:11;;;;;;;17.05;10.30;;;;;;;0.86;100.00;97617.25;5012053;28;20052;-68
2024/02/05 02:14:37;;;;;;;16.15;9.25;;;;;;;0.84;100.00;97609.44;5016026;28;20073;-68
2024/02/05 02:17:04;;;;;;;24.25;10.80;;;;;;;0.82;100.00;97611.59;5012832;28;20048;-69
2024/02/05 02:19:41;;;;;;;16.40;10.50;;;;;;;0.82;100.00;97611.59;5028881;28;20447;-68
2024/02/05 02:22:36;;;;;;;34.08;15.60;;;;;;;0.63;100.00;97613.34;5001542;28;20041;-67
2024/02/05 02:25:02;;;;;;;21.98;10.18;;;;;;;0.56;100.00;97616.38;5017522;28;20488;-68
2024/02/05 02:27:28;;;;;;;26.88;12.77;;;;;;;0.58;100.00;97608.81;4999378;28;20048;-66
2024/02/05 02:29:55;;;;;;;23.65;10.65;;;;;;;0.64;100.00;97612.28;5003948;28;20041;-66
2024/02/05 02:32:35;;;;;;;26.45;11.90;;;;;;;0.78;100.00;97601.69;5010100;28;20099;-69
2024/02/05 02:35:11;;;;;;;34.25;15.38;;;;;;;1.42;100.00;97603.28;5020732;28;20081;-68
2024/02/05 02:37:43;;;;;;;37.78;17.17;;;;;;;2.08;100.00;97598.25;5006101;28;20612;-69
2024/02/05 02:40:13;;;;;;;36.33;16.63;;;;;;;2.37;100.00;97603.53;5011401;28;20080;-70
2024/02/05 02:42:40;;;;;;;36.65;16.20;;;;;;;2.39;100.00;97606.75;5020938;28;20041;-69
2024/02/05 02:45:08;;;;;;;33.72;17.40;;;;;;;2.64;100.00;97602.91;5013819;28;20042;-70
2024/02/05 02:47:35;;;;;;;31.20;16.08;;;;;;;2.65;100.00;97611.84;5020116;28;20045;-69
2024/02/05 02:50:03;;;;;;;31.48;15.52;;;;;;;2.68;100.00;97609.34;5020682;28;20050;-68
2024/02/05 02:52:29;;;;;;;31.00;14.98;;;;;;;2.70;100.00;97610.94;4987133;28;20046;-69
2024/02/05 02:54:54;;;;;;;27.42;15.02;;;;;;;2.64;100.00;97612.91;5014880;28;20038;-69
2024/02/05 02:57:20;;;;;;;30.27;13.55;;;;;;;2.57;100.00;97613.28;5016469;28;20819;-69
2024/02/05 02:59:45;;;;;;;28.20;13.48;;;;;;;2.51;100.00;97608.25;5031017;28;20041;-69
2024/02/05 03:02:11;;;;;;;28.05;13.02;;;;;;;2.61;100.00;97608.09;5024717;28;20124;-69
2024/02/05 03:04:36;;;;;;;26.70;14.30;;;;;;;2.80;100.00;97614.31;5019721;28;20712;-68
2024/02/05 03:07:02;;;;;;;27.67;13.05;;;;;;;2.95;100.00;97602.44;5013088;28;20050;-70
2024/02/05 03:09:28;;;;;;;23.33;12.88;;;;;;;3.01;100.00;97605.88;5015327;28;20049;-69
2024/02/05 03:11:54;;;;;;;24.20;11.82;;;;;;;3.05;100.00;97604.19;5015757;28;20747;-67
2024/02/05 03:14:23;;;;;;;28.88;13.30;;;;;;;3.13;100.00;97598.09;5008129;28;20057;-67
2024/02/05 03:16:49;;;;;;;22.50;12.13;;;;;;;3.13;100.00;97600.00;5014428;28;20043;-69
2024/02/05 03:19:14;;;;;;;26.75;12.00;;;;;;;3.17;100.00;97595.59;5014871;28;20081;-66
2024/02/05 03:21:40;;;;;;;20.90;11.68;;;;;;;3.09;100.00;97594.38;5012769;28;20073;-67
2024/02/05 03:24:06;;;;;;;23.98;11.73;;;;;;;2.98;100.00;97607.25;5012606;28;20530;-67
2024/02/05 03:26:33;;;;;;;21.95;11.40;;;;;;;2.98;100.00;97599.16;5016719;28;20446;-69
2024/02/05 03:28:58;;;;;;;17.25;9.75;;;;;;;2.93;100.00;97599.22;5015153;28;20050;-69
2024/02/05 03:31:24;;;;;;;17.15;9.88;;;;;;;2.93;100.00;97599.22;5009844;28;20052;-68
2024/02/05 03:33:49;;;;;;;22.48;9.15;;;;;;;2.82;100.00;97605.91;5020010;28;20045;-68
2024/02/05 03:36:14;;;;;;;15.35;8.77;;;;;;;2.78;100.00;97605.69;5010686;28;20500;-69
2024/02/05 03:38:40;;;;;;;13.23;7.93;;;;;;;2.86;100.00;97602.31;5017985;28;20822;-69
2024/02/05 03:41:06;;;;;;;16.35;8.05;;;;;;;2.79;100.00;97603.75;5010502;28;20057;-68
2024/02/05 03:43:32;;;;;;;14.10;7.60;;;;;;;2.84;100.00;97599.06;5019187;28;20095;-67
2024/02/05 03:45:57;;;;;;;19.30;8.63;;;;;;;2.77;100.00;97595.16;5020047;28;20447;-68
2024/02/05 03:48:23;;;;;;;25.95;8.50;;;;;;;2.95;100.00;97605.13;5007844;28;20523;-68
2024/02/05 03:50:49;;;;;;;15.73;8.27;;;;;;;3.12;100.00;97601.91;5018533;28;20049;-68
2024/02/05 03:53:14;;;;;;;15.40;8.57;;;;;;;3.17;100.00;97595.59;5011259;28;20051;-68
2024/02/05 03:55:40;;;;;;;15.25;8.10;;;;;;;3.18;100.00;97594.50;5018290;28;20411;-68
2024/02/05 03:58:06;;;;;;;15.85;7.47;;;;;;;3.31;100.00;97603.75;5012449;28;20045;-69
2024/02/05 04:00:31;;;;;;;18.05;8.07;;;;;;;3.48;100.00;97609.44;5021495;28;20057;-68
2024/02/05 04:02:57;;;;;;;16.30;8.02;;;;;;;3.58;100.00;97613.84;5027715;28;20053;-68
2024/02/05 04:05:25;;;;;;;13.95;7.50;;;;;;;3.68;100.00;97604.75;5011052;28;20092;-67
2024/02/05 04:07:51;;;;;;;11.52;6.82;;;;;;;3.69;100.00;97601.75;5000993;28;20051;-66
2024/02/05 04:10:16;;;;;;;11.77;6.95;;;;;;;3.74;100.00;97609.75;5022940;28;20037;-68
2024/02/05 04:12:42;;;;;;;19.02;8.57;;;;;;;3.78;100.00;97608.06;5024232;28;20497;-69
2024/02/05 04:15:09;;;;;;;15.07;7.05;;;;;;;3.71;100.00;97607.66;5011919;28;20045;-68
2024/02/05 04:17:34;;;;;;;15.80;6.60;;;;;;;3.63;100.00;97614.56;5000334;28;20041;-68
2024/02/05 04:19:59;;;;;;;13.82;6.88;;;;;;;3.53;100.00;97606.63;5018346;28;20065;-68
2024/02/05 04:22:25;;;;;;;20.65;7.60;;;;;;;3.55;100.00;97623.38;5011149;28;20077;-68
2024/02/05 04:24:50;;;;;;;20.08;8.07;;;;;;;3.50;100.00;97625.38;5019048;28;20057;-68
2024/02/05 04:27:16;;;;;;;13.55;6.45;;;;;;;3.38;100.00;97629.34;5013475;28;20140;-68
2024/02/05 04:29:41;;;;;;;18.65;7.70;;;;;;;3.40;100.00;97629.88;5015295;28;20136;-68
2024/02/05 04:32:07;;;;;;;21.73;7.15;;;;;;;3.33;100.00;97628.63;5010857;28;20099;-69
2024/02/05 04:34:32;;;;;;;10.30;5.47;;;;;;;3.37;100.00;97630.47;5013707;28;20038;-69
2024/02/05 04:36:58;;;;;;;12.50;5.07;;;;;;;3.27;100.00;97635.25;5015135;28;20431;-69
2024/02/05 04:39:23;;;;;;;15.05;6.55;;;;;;;3.16;100.00;97630.00;5004401;28;20492;-69
2024/02/05 04:41:49;;;;;;;16.27;5.38;;;;;;;3.24;100.00;97629.31;5019154;28;20040;-68
2024/02/05 04:44:16;;;;;;;14.30;5.25;;;;;;;3.11;100.00;97621.94;5012646;28;20284;-68
2024/02/05 04:46:42;;;;;;;57.72;22.45;;;;;;;3.13;100.00;97627.88;5018497;28;20042;-69
2024/02/05 04:49:08;;;;;;;23.10;6.65;;;;;;;3.12;100.00;97625.47;5010664;28;20056;-68
2024/02/05 04:51:34;;;;;;;9.38;5.50;;;;;;;3.09;100.00;97626.06;4997874;28;20099;-68
2024/02/05 04:54:00;;;;;;;13.10;4.72;;;;;;;3.04;100.00;97635.03;5018960;28;20054;-68
2024/02/05 04:56:25;;;;;;;10.55;4.97;;;;;;;2.96;100.00;97633.03;5016054;28;20049;-67
2024/02/05 04:58:51;;;;;;;10.55;6.07;;;;;;;2.92;100.00;97630.09;5023630;28;20097;-67
2024/02/05 05:01:17;;;;;;;12.45;5.00;;;;;;;2.87;100.00;97641.78;5024407;28;20042;-68
2024/02/05 05:03:42;;;;;;;17.35;5.90;;;;;;;2.80;100.00;97637.84;4998795;28;20095;-67
2024/02/05 05:06:08;;;;;;;11.00;5.15;;;;;;;2.84;100.00;97638.88;5008699;28;20052;-68
2024/02/05 05:08:33;;;;;;;13.70;5.63;;;;;;;2.68;100.00;97640.97;5018395;28;20041;-67
2024/02/05 05:10:58;;;;;;;7.90;4.95;;;;;;;2.61;100.00;97645.94;5013707;28;20059;-68
2024/02/05 05:13:24;;;;;;;13.32;5.45;;;;;;;2.58;100.00;97644.66;5011682;28;20053;-68
2024/02/05 05:15:49;;;;;;;11.27;5.32;;;;;;;2.50;100.00;97650.69;5016068;28;20037;-68
2024/02/05 05:18:15;;;;;;;10.90;4.95;;;;;;;2.52;100.00;97647.69;5012447;28;20129;-69
2024/02/05 05:20:42;;;;;;;9.13;5.18;;;;;;;2.49;100.00;97655.31;5016732;28;20623;-69
2024/02/05 05:23:07;;;;;;;13.88;5.60;;;;;;;2.32;100.00;97652.28;5012745;28;20073;-69
2024/02/05 05:25:33;;;;;;;13.00;5.53;;;;;;;2.24;100.00;97652.94;5018092;28;20171;-69
2024/02/05 05:27:58;;;;;;;12.13;5.95;;;;;;;2.45;100.00;97657.00;5014843;28;20061;-70
2024/02/05 05:30:24;;;;;;;13.27;5.30;;;;;;;2.49;100.00;97659.91;4992158;28;20053;-70
2024/02/05 05:32:49;;;;;;;15.45;5.10;;;;;;;2.56;100.00;97662.28;5017792;28;20102;-69
2024/02/05 05:35:14;;;;;;;9.70;5.38;;;;;;;2.46;100.00;97664.00;5016606;28;20057;-70
2024/02/05 05:37:43;;;;;;;8.80;5.18;;;;;;;2.26;100.00;97665.03;5021900;28;20527;-69
2024/02/05 05:40:09;;;;;;;9.45;5.72;;;;;;;1.98;100.00;97668.63;5029168;28;20045;-69
2024/02/05 05:42:35;;;;;;;15.65;6.18;;;;;;;1.82;100.00;97663.38;5021361;28;20045;-69
2024/02/05 05:45:01;;;;;;;14.77;5.35;;;;;;;1.59;100.00;97670.34;5020215;28;20049;-68
2024/02/05 05:47:26;;;;;;;11.25;5.97;;;;;;;1.52;100.00;97672.59;5017078;28;20132;-69
2024/02/05 05:49:52;;;;;;;15.43;7.72;;;;;;;1.50;100.00;97674.78;5004118;28;20099;-69
2024/02/05 05:52:17;;;;;;;11.68;5.68;;;;;;;1.50;100.00;97672.06;5016403;28;20046;-70
2024/02/05 05:54:43;;;;;;;17.73;7.28;;;;;;;1.43;100.00;97668.88;5022189;28;20048;-69
2024/02/05 05:57:08;;;;;;;12.70;6.97;;;;;;;1.31;100.00;97671.94;5017334;28;20492;-68
2024/02/05 05:59:38;;;;;;;11.40;7.22;;;;;;;1.19;100.00;97672.31;5022539;28;20223;-69
2024/02/05 06:02:03;;;;;;;15.07;7.40;;;;;;;1.17;100.00;97670.97;5012257;28;20089;-69
2024/02/05 06:04:29;;;;;;;15.30;7.57;;;;;;;1.24;100.00;97674.16;5029201;28;20068;-69
2024/02/05 06:06:54;;;;;;;14.23;7.63;;;;;;;1.19;100.00;97676.88;5020886;28;20045;-69
2024/02/05 06:09:21;;;;;;;12.82;8.55;;;;;;;1.19;100.00;97674.19;5015843;28;20743;-69
2024/02/05 06:11:46;;;;;;;17.88;8.80;;;;;;;1.11;100.00;97681.81;5021923;28;20041;-69
2024/02/05 06:14:12;;;;;;;21.08;8.55;;;;;;;1.26;100.00;97680.91;5015359;28;20518;-70
2024/02/05 06:16:37;;;;;;;15.63;8.13;;;;;;;1.25;100.00;97681.19;5021780;28;20045;-69
2024/02/05 06:19:02;;;;;;;18.00;8.82;;;;;;;1.32;100.00;97679.75;5017274;28;20526;-70
2024/02/05 06:21:28;;;;;;;17.83;8.85;;;;;;;1.46;100.00;97687.19;5019640;28;20045;-69
2024/02/05 06:23:53;;;;;;;21.08;9.25;;;;;;;1.49;100.00;97700.13;5023103;23;20053;-74
2024/02/05 06:26:19;;;;;;;18.20;10.20;;;;;;;1.47;100.00;97694.22;4994523;28;20129;-74
2024/02/05 06:28:44;;;;;;;19.05;10.68;;;;;;;1.51;100.00;97695.25;5016790;28;20037;-75
2024/02/05 06:31:12;;;;;;;20.00;11.07;;;;;;;1.56;100.00;97697.91;5008663;28;20076;-74
2024/02/05 06:33:37;;;;;;;23.88;10.27;;;;;;;1.57;100.00;97702.25;5021376;28;20199;-76
2024/02/05 06:36:03;;;;;;;17.65;10.95;;;;;;;1.57;100.00;97702.25;5019790;28;20105;-75
2024/02/05 06:38:29;;;;;;;23.13;11.60;;;;;;;1.60;100.00;97698.97;5018181;28;20046;-76
2024/02/05 06:40:54;;;;;;;22.67;11.95;;;;;;;1.61;100.00;97700.59;5014095;28;20054;-76
2024/02/05 06:43:20;;;;;;;25.77;11.95;;;;;;;1.73;100.00;97705.63;5015725;28;20067;-75
2024/02/05 06:45:45;;;;;;;25.48;12.07;;;;;;;1.71;100.00;97694.28;5014252;28;20466;-75
2024/02/05 06:48:11;;;;;;;26.20;12.15;;;;;;;1.57;100.00;97707.66;5016230;28;20049;-75
2024/02/05 06:50:36;;;;;;;27.77;12.13;;;;;;;1.55;100.00;97707.13;5020966;28;20052;-75
2024/02/05 06:53:02;;;;;;;20.10;12.02;;;;;;;1.55;100.00;97706.31;5009880;28;20403;-75
2024/02/05 06:55:28;;;;;;;19.80;11.23;;;;;;;1.64;100.00;97710.81;5012761;28;20135;-75
2024/02/05 06:57:54;;;;;;;27.60;11.43;;;;;;;1.68;100.00;97708.38;5023304;28;20050;-76
2024/02/05 07:00:19;;;;;;;24.58;11.68;;;;;;;1.75;100.00;97711.53;5010451;28;20113;-75
2024/02/05 07:02:44;;;;;;;24.33;11.70;;;;;;;1.81;100.00;97715.78;5024760;28;20048;-76
2024/02/05 07:05:10;;;;;;;21.10;12.05;;;;;;;1.96;100.00;97714.81;5013718;28;20048;-75
2024/02/05 07:07:36;;;;;;;23.80;11.45;;;;;;;2.06;100.00;97716.63;5017526;28;20086;-75
2024/02/05 07:10:02;;;;;;;19.42;11.75;;;;;;;2.13;100.00;97719.00;5011851;28;20083;-73
2024/02/05 07:12:28;;;;;;;24.83;10.40;;;;;;;2.22;100.00;97728.09;5011384;28;20076;-74
2024/02/05 07:14:53;;;;;;;17.38;9.98;;;;;;;2.31;100.00;97728.28;5005673;28;20104;-75
2024/02/05 07:17:29;;;;;;;17.80;9.68;;;;;;;2.42;100.00;97730.56;5004319;28;20045;-75
2024/02/05 07:19:58;;;;;;;18.83;10.68;;;;;;;2.47;100.00;97718.91;5013696;28;20045;-75
2024/02/05 07:22:23;;;;;;;20.70;9.50;;;;;;;2.38;100.00;97728.75;4996405;28;20491;-75
2024/02/05 07:24:48;;;;;;;16.58;9.80;;;;;;;2.39;100.00;97720.31;4996701;28;20576;-75
2024/02/05 07:27:14;;;;;;;15.70;9.20;;;;;;;2.52;100.00;97728.84;5004367;28;20049;-75
2024/02/05 07:29:42;;;;;;;18.50;10.07;;;;;;;2.58;100.00;97716.88;4991199;28;20775;-75
2024/02/05 07:32:07;;;;;;;23.55;8.85;;;;;;;2.85;100.00;97725.16;4983071;28;20480;-75
2024/02/05 07:34:33;;;;;;;21.42;9.32;;;;;;;3.35;100.00;97732.88;4991964;28;20057;-76
2024/02/05 07:36:58;;;;;;;17.98;9.55;;;;;;;4.43;100.00;97720.16;5002505;28;20045;-75
2024/02/05 07:39:24;;;;;;;17.50;7.78;;;;;;;5.03;100.00;97715.69;4994545;28;20052;-75
2024/02/05 07:41:49;;;;;;;10.98;6.03;;;;;;;5.66;100.00;97719.38;4992867;28;20589;-76
2024/02/05 07:44:15;;;;;;;15.80;6.13;;;;;;;6.42;100.00;97732.94;4980377;28;20137;-76
2024/02/05 07:46:40;;;;;;;12.13;5.57;;;;;;;6.79;100.00;97732.72;4996007;28;20572;-76
2024/02/05 07:49:07;;;;;;;9.43;5.03;;;;;;;7.58;100.00;97733.63;4993531;28;20407;-78
2024/02/05 07:51:32;;;;;;;9.15;6.05;;;;;;;8.37;100.00;97735.09;4988657;28;20050;-78
2024/02/05 07:53:57;;;;;;;11.65;5.13;;;;;;;8.50;100.00;97746.13;4998762;28;20043;-77
2024/02/05 07:56:23;;;;;;;13.95;5.70;;;;;;;9.22;100.00;97740.75;4988531;28;20153;-79
2024/02/05 07:58:49;;;;;;;12.55;4.90;;;;;;;9.77;100.00;97740.47;5005248;28;20042;-76
2024/02/05 08:01:15;;;;;;;16.23;6.10;;;;;;;10.15;100.00;97741.41;4992380;28;20052;-78
2024/02/05 08:03:40;;;;;;;10.35;5.50;;;;;;;10.18;100.00;97738.00;4982940;28;20035;-77
2024/02/05 08:06:07;;;;;;;13.30;5.93;;;;;;;9.14;100.00;97735.03;4994347;28;20038;-77
2024/02/05 08:08:34;;;;;;;12.80;5.72;;;;;;;9.02;100.00;97736.88;4989218;28;20081;-76
2024/02/05 08:10:59;;;;;;;12.45;4.97;;;;;;;8.87;100.00;97730.84;4985992;28;20108;-76
2024/02/05 08:13:24;;;;;;;12.50;4.95;;;;;;;8.90;100.00;97737.59;4989677;28;20050;-76
2024/02/05 08:15:50;;;;;;;16.50;6.43;;;;;;;8.48;100.00;97738.28;4996442;28;20046;-75
2024/02/05 08:18:15;;;;;;;14.15;5.43;;;;;;;8.22;100.00;97735.59;4991299;28;20038;-78
2024/02/05 08:20:41;;;;;;;9.90;4.85;;;;;;;9.38;100.00;97728.94;4999642;28;20046;-77
2024/02/05 08:23:07;;;;;;;14.98;5.53;;;;;;;10.26;100.00;97722.63;4987210;28;20050;-77
2024/02/05 08:25:33;;;;;;;12.63;5.32;;;;;;;9.22;100.00;97729.84;4988073;28;20046;-75
2024/02/05 08:28:00;;;;;;;14.63;5.53;;;;;;;8.71;100.00;97727.09;4995336;28;20520;-76
2024/02/05 08:30:25;;;;;;;18.08;5.47;;;;;;;8.59;100.00;97719.63;4994174;28;20051;-76
2024/02/05 08:32:51;;;;;;;17.70;6.50;;;;;;;9.04;100.00;97718.22;4994460;28;20121;-76
2024/02/05 08:35:16;;;;;;;10.02;4.40;;;;;;;9.09;100.00;97721.59;4981160;28;20121;-76
2024/02/05 08:37:42;;;;;;;16.90;4.40;;;;;;;9.60;100.00;97728.88;4983854;28;20041;-76
2024/02/05 08:40:08;;;;;;;11.57;4.60;;;;;;;8.49;100.00;97723.50;4977115;28;20127;-76
2024/02/05 08:42:35;;;;;;;12.55;4.32;;;;;;;9.21;100.00;97722.78;4988128;28;20048;-76
2024/02/05 08:45:00;;;;;;;12.82;4.30;;;;;;;9.72;100.00;97718.84;4980499;28;20400;-76
2024/02/05 08:47:26;;;;;;;13.38;4.60;;;;;;;8.40;100.00;97719.97;4975449;28;20141;-77
2024/02/05 08:49:52;;;;;;;9.45;4.78;;;;;;;7.89;100.00;97722.53;4987205;28;20480;-75
2024/02/05 08:52:17;;;;;;;9.90;4.40;;;;;;;8.65;100.00;97723.75;4975269;28;20043;-77
2024/02/05 08:54:43;;;;;;;10.75;4.30;;;;;;;8.87;100.00;97722.66;4990198;28;20034;-77
2024/02/05 08:57:08;;;;;;;20.95;5.53;;;;;;;8.07;100.00;97717.00;4985285;28;20382;-75
2024/02/05 08:59:33;;;;;;;15.13;4.80;;;;;;;9.47;100.00;97714.38;4979624;28;20042;-76
2024/02/05 09:01:59;;;;;;;11.75;4.47;;;;;;;9.69;100.00;97714.03;4992937;28;20058;-76
2024/02/05 09:04:24;;;;;;;11.18;4.97;;;;;;;8.95;100.00;97712.84;4990746;28;20068;-75
2024/02/05 09:06:51;;;;;;;13.55;4.57;;;;;;;8.97;100.00;97705.09;4981266;28;20099;-74
2024/02/05 09:09:17;;;;;;;9.45;3.60;;;;;;;8.71;100.00;97710.69;4987218;28;20072;-73
2024/02/05 09:11:42;;;;;;;13.25;4.15;;;;;;;8.85;100.00;97715.94;5003774;28;20070;-73
2024/02/05 09:14:07;;;;;;;11.13;3.53;;;;;;;8.87;100.00;97705.47;5003806;28;20048;-73
2024/02/05 09:16:33;;;;;;;10.18;3.88;;;;;;;8.52;100.00;97703.72;5019908;28;20041;-73
2024/02/05 09:18:58;;;;;;;16.00;3.85;;;;;;;9.27;100.00;97708.56;5007931;28;20038;-75
2024/02/05 09:21:24;;;;;;;15.63;4.25;;;;;;;9.85;100.00;97708.72;5004256;28;20041;-74
2024/02/05 09:23:49;;;;;;;9.57;3.65;;;;;;;9.87;100.00;97711.13;5026817;28;20646;-75
2024/02/05 09:26:14;;;;;;;10.88;4.20;;;;;;;9.84;100.00;97706.31;4996506;28;20096;-73
2024/02/05 09:28:42;;;;;;;8.57;3.80;;;;;;;9.77;97.09;97709.59;4999492;28;20030;-74
2024/02/05 09:31:08;;;;;;;9.52;3.83;;;;;;;10.34;100.00;97710.81;5009696;28;20056;-74
2024/02/05 09:33:34;;;;;;;13.05;4.50;;;;;;;10.41;97.37;97707.50;5007797;28;20053;-75
2024/02/05 09:36:00;;;;;;;16.02;4.90;;;;;;;10.98;92.67;97700.31;4999387;28;20037;-75
2024/02/05 09:38:25;;;;;;;11.35;3.28;;;;;;;10.88;91.14;97704.31;4994743;28;20077;-74
2024/02/05 09:41:03;;;;;;;9.90;3.25;;;;;;;10.81;94.19;97706.84;4998365;28;20038;-74
2024/02/05 09:43:30;;;;;;;9.45;4.20;;;;;;;11.97;86.30;97715.31;4995164;28;20081;-74
2024/02/05 09:46:03;;;;;;;15.25;3.92;;;;;;;11.90;79.54;97714.31;5000441;28;20037;-72
2024/02/05 09:48:32;;;;;;;16.60;4.78;;;;;;;12.00;77.39;97722.88;4996620;28;20042;-75
2024/02/05 09:50:57;;;;;;;15.48;4.00;;;;;;;11.99;81.24;97714.97;4999119;28;20090;-75
2024/02/05 09:53:23;;;;;;;20.42;4.68;;;;;;;12.43;80.20;97710.25;4995282;28;20428;-74
2024/02/05 09:55:49;;;;;;;13.02;4.07;;;;;;;12.60;74.00;97714.63;5012476;28;20045;-73
2024/02/05 09:58:14;;;;;;;12.43;4.38;;;;;;;12.04;77.11;97722.97;5007065;28;20618;-75
2024/02/05 10:00:40;;;;;;;8.77;3.40;;;;;;;11.84;79.66;97709.06;5022588;28;20040;-73
2024/02/05 10:03:06;;;;;;;10.90;3.72;;;;;;;11.26;81.16;97714.09;4994408;28;20045;-73
2024/02/05 10:05:34;;;;;;;13.43;3.63;;;;;;;12.45;78.31;97709.13;5011118;28;20045;-75
2024/02/05 10:08:00;;;;;;;15.13;4.63;;;;;;;13.16;74.07;97705.31;5012907;28;20045;-75
2024/02/05 10:10:27;;;;;;;17.23;6.15;;;;;;;14.26;67.66;97718.94;5012997;28;20190;-75
2024/02/05 10:12:53;;;;;;;13.57;3.40;;;;;;;14.20;65.81;97722.34;4997884;28;20492;-74
2024/02/05 10:15:19;;;;;;;10.10;3.22;;;;;;;14.47;63.37;97729.53;5001604;28;20048;-74
2024/02/05 10:17:44;;;;;;;22.98;5.18;;;;;;;12.82;67.78;97726.91;5002967;28;20140;-74
2024/02/05 10:20:12;;;;;;;17.15;4.38;;;;;;;11.94;75.71;97713.31;5003453;28;20140;-76
2024/02/05 10:22:46;;;;;;;12.63;3.45;;;;;;;11.84;77.97;97713.78;5008501;28;20046;-75
2024/02/05 10:25:12;;;;;;;11.98;3.08;;;;;;;12.38;74.30;97712.47;4996490;28;20046;-75
2024/02/05 10:27:38;;;;;;;13.20;3.45;;;;;;;12.73;72.07;97712.56;4993937;28;20447;-74
2024/02/05 10:30:05;;;;;;;12.57;3.72;;;;;;;13.04;71.82;97699.94;5012906;28;20081;-75
2024/02/05 10:32:32;;;;;;;29.58;4.68;;;;;;;13.51;68.60;97698.22;5003912;28;20445;-74
2024/02/05 10:34:57;;;;;;;8.27;3.50;;;;;;;14.21;65.40;97697.19;4986929;28;20181;-75
2024/02/05 10:37:23;;;;;;;16.77;5.13;;;;;;;13.97;63.67;97698.31;4987677;28;20129;-73
2024/02/05 10:39:48;;;;;;;19.85;4.75;;;;;;;13.55;64.54;97696.31;4987469;28;20034;-74
2024/02/05 10:42:17;;;;;;;18.70;3.38;;;;;;;13.56;64.98;97684.94;4982399;28;20038;-74
2024/02/05 10:44:42;;;;;;;18.73;3.25;;;;;;;12.69;68.30;97692.41;4989109;28;20078;-73
2024/02/05 10:47:09;;;;;;;11.00;2.63;;;;;;;14.08;63.94;97687.50;4987073;28;20074;-75
2024/02/05 10:49:34;;;;;;;10.13;2.70;;;;;;;13.98;64.44;97686.16;4991297;28;20049;-74
2024/02/05 10:52:00;;;;;;;11.05;3.10;;;;;;;13.45;64.16;97678.44;4988566;28;20048;-75
2024/02/05 10:54:26;;;;;;;12.25;3.25;;;;;;;13.68;66.77;97667.47;4997404;28;20072;-75
2024/02/05 10:56:54;;;;;;;9.43;2.83;;;;;;;13.30;65.07;97671.78;5024051;28;20603;-74
2024/02/05 10:59:20;;;;;;;25.90;4.30;;;;;;;13.84;64.34;97661.09;5011155;28;20038;-72
2024/02/05 11:01:48;;;;;;;8.48;2.90;;;;;;;14.37;63.32;97657.69;5034227;28;20037;-73
2024/02/05 11:04:17;;;;;;;15.80;3.28;;;;;;;14.61;60.54;97651.81;5011726;28;20549;-73
2024/02/05 11:06:49;;;;;;;12.82;3.15;;;;;;;14.34;60.06;97651.75;4982995;28;20508;-74
2024/02/05 11:09:15;;;;;;;24.98;5.93;;;;;;;14.62;59.96;97644.34;4987450;28;20069;-72
2024/02/05 11:11:45;;;;;;;11.27;3.00;;;;;;;13.55;62.42;97636.56;5003659;28;20175;-74
2024/02/05 11:14:11;;;;;;;;;;;;;;;13.63;64.02;97640.28;5010561;28;20400;-72
2024/02/05 11:16:41;;;;;;;14.70;3.30;;;;;;;13.52;63.69;97633.72;5009349;28;19970;-75
2024/02/05 11:19:10;;;;;;;8.73;3.05;;;;;;;13.17;64.78;97632.63;5008580;28;20037;-75